Time;durP1;ratioP1;P1;durP2;ratioP2;P2;SDS_P1;SDS_P2;PMS_P1;PMS_P2;Temp;Humidity;BMP_temperature;BMP_pressure;BME280_temperature;BME280_humidity;BME280_pressure;Samples;Min_cycle;Max_cycle;Signal;HPM_P1;HPM_P2
2021/08/12 00:02:03;;;;;;;10.70;6.60;;;;;;;16.34;99.87;96329.00;5045982;28;20417;-74
2021/08/12 00:04:29;;;;;;;8.95;6.68;;;;;;;16.29;100.00;96326.75;5054791;28;20424;-74
2021/08/12 00:06:55;;;;;;;10.10;6.68;;;;;;;16.27;100.00;96327.81;5049314;28;20798;-75
2021/08/12 00:09:22;;;;;;;9.73;6.07;;;;;;;16.30;100.00;96330.19;5044356;28;20476;-74
2021/08/12 00:11:47;;;;;;;8.30;6.40;;;;;;;16.27;100.00;96335.66;5054312;28;20417;-75
2021/08/12 00:14:13;;;;;;;11.95;7.53;;;;;;;16.25;100.00;96327.13;5054119;28;20764;-75
2021/08/12 00:16:38;;;;;;;14.60;8.82;;;;;;;16.21;100.00;96336.97;5035771;28;20421;-75
2021/08/12 00:19:04;;;;;;;9.47;6.60;;;;;;;16.15;100.00;96326.97;5054421;28;20759;-75
2021/08/12 00:21:30;;;;;;;7.27;5.80;;;;;;;16.11;100.00;96323.75;5048978;28;20433;-74
2021/08/12 00:23:57;;;;;;;8.68;6.13;;;;;;;16.08;100.00;96326.59;5041844;28;20409;-75
2021/08/12 00:26:23;;;;;;;7.50;6.22;;;;;;;16.08;100.00;96317.94;5045280;28;20417;-74
2021/08/12 00:28:49;;;;;;;7.38;5.93;;;;;;;16.08;100.00;96313.53;5054014;28;20759;-74
2021/08/12 00:31:14;;;;;;;7.60;5.90;;;;;;;16.12;100.00;96312.34;5053742;28;20478;-74
2021/08/12 00:33:40;;;;;;;9.03;6.33;;;;;;;16.29;99.93;96307.63;5053872;28;20425;-74
2021/08/12 00:36:05;;;;;;;11.95;6.07;;;;;;;16.30;97.74;96304.91;5035743;28;20417;-74
2021/08/12 00:38:31;;;;;;;6.65;5.25;;;;;;;16.13;99.31;96310.56;5053804;28;20429;-74
2021/08/12 00:40:56;;;;;;;8.63;5.70;;;;;;;15.99;100.00;96302.97;5053704;28;20409;-74
2021/08/12 00:43:23;;;;;;;7.77;5.20;;;;;;;16.00;100.00;96302.03;5052680;28;20405;-74
2021/08/12 00:45:48;;;;;;;6.60;5.90;;;;;;;16.00;100.00;96312.47;5041364;28;20503;-74
2021/08/12 00:48:14;;;;;;;6.37;5.00;;;;;;;16.01;99.83;96311.50;5051138;28;20500;-74
2021/08/12 00:50:41;;;;;;;7.93;5.28;;;;;;;16.05;98.57;96308.53;5053512;28;20425;-74
2021/08/12 00:53:07;;;;;;;6.13;4.32;;;;;;;15.91;98.85;96308.78;5035612;28;20938;-74
2021/08/12 00:55:32;;;;;;;11.33;5.53;;;;;;;15.97;98.15;96310.91;5035188;28;20451;-74
2021/08/12 00:57:58;;;;;;;11.43;5.53;;;;;;;15.99;97.98;96309.03;5053479;28;20850;-74
2021/08/12 01:00:25;;;;;;;7.15;4.70;;;;;;;15.97;97.78;96314.34;5053297;28;20409;-74
2021/08/12 01:02:51;;;;;;;6.97;5.25;;;;;;;15.86;97.90;96318.72;5053328;28;20452;-74
2021/08/12 01:05:17;;;;;;;7.93;5.68;;;;;;;15.85;98.05;96311.84;5053082;28;20847;-74
2021/08/12 01:07:52;;;;;;;8.45;6.32;;;;;;;15.81;99.71;96323.47;5035409;28;20420;-74
2021/08/12 01:10:21;;;;;;;9.07;6.47;;;;;;;15.65;100.00;96319.41;5052840;28;20425;-74
2021/08/12 01:12:53;;;;;;;8.25;6.90;;;;;;;15.58;100.00;96322.56;5035520;28;20850;-74
2021/08/12 01:15:25;;;;;;;10.35;6.10;;;;;;;15.55;100.00;96314.94;5052789;28;20441;-74
2021/08/12 01:18:00;;;;;;;7.47;5.85;;;;;;;15.53;100.00;96327.25;5053122;28;20448;-74
2021/08/12 01:20:58;;;;;;;12.40;6.25;;;;;;;15.51;100.00;96319.56;5035161;28;20455;-74
2021/08/12 01:23:25;;;;;;;6.88;5.72;;;;;;;15.56;100.00;96321.81;5052968;28;20751;-74
2021/08/12 01:25:53;;;;;;;7.65;5.43;;;;;;;15.70;100.00;96317.25;5034462;28;20426;-74
2021/08/12 01:28:23;;;;;;;6.97;4.80;;;;;;;15.80;98.65;96316.59;5024884;28;20472;-74
2021/08/12 01:31:00;;;;;;;7.93;5.35;;;;;;;15.78;98.35;96313.25;5034892;28;20778;-74
2021/08/12 01:33:42;;;;;;;7.50;4.88;;;;;;;15.69;98.23;96312.16;5052991;28;20474;-74
2021/08/12 01:36:10;;;;;;;5.35;4.80;;;;;;;15.55;98.91;96314.94;5052314;28;20417;-74
2021/08/12 01:38:37;;;;;;;6.07;4.75;;;;;;;15.43;100.00;96308.84;5034912;28;20421;-74
2021/08/12 01:41:05;;;;;;;7.28;4.70;;;;;;;15.34;100.00;96315.56;5052643;28;20748;-74
2021/08/12 01:43:30;;;;;;;6.35;5.53;;;;;;;15.39;100.00;96312.63;5052663;28;20401;-74
2021/08/12 01:45:58;;;;;;;7.20;4.70;;;;;;;15.48;100.00;96309.34;5052251;28;20412;-74
2021/08/12 01:48:26;;;;;;;8.18;4.65;;;;;;;15.57;98.72;96307.81;5052305;28;20501;-74
2021/08/12 01:50:53;;;;;;;5.75;4.32;;;;;;;15.51;98.70;96303.06;5052628;28;20425;-74
2021/08/12 01:53:22;;;;;;;6.57;5.47;;;;;;;15.42;100.00;96307.16;5052473;28;21126;-74
2021/08/12 01:55:48;;;;;;;7.25;4.90;;;;;;;15.39;100.00;96308.25;5052046;28;20420;-74
2021/08/12 01:58:16;;;;;;;6.25;5.38;;;;;;;15.41;100.00;96308.94;5052397;28;20421;-74
2021/08/12 02:00:42;;;;;;;5.38;4.88;;;;;;;15.34;100.00;96307.72;5052232;28;20425;-74
2021/08/12 02:03:08;;;;;;;7.63;5.97;;;;;;;15.29;100.00;96302.03;5034322;28;20850;-74
2021/08/12 02:05:34;;;;;;;6.90;5.70;;;;;;;15.26;100.00;96294.41;5051863;28;20508;-74
2021/08/12 02:08:00;;;;;;;7.18;5.60;;;;;;;15.44;100.00;96295.66;5052145;28;20799;-74
2021/08/12 02:10:27;;;;;;;7.40;5.80;;;;;;;15.48;100.00;96297.09;5034039;28;20471;-74
2021/08/12 02:12:52;;;;;;;5.88;5.00;;;;;;;15.45;100.00;96299.13;5052110;28;20409;-74
2021/08/12 02:15:17;;;;;;;10.27;6.23;;;;;;;15.39;100.00;96289.97;5051752;28;20471;-74
2021/08/12 02:17:43;;;;;;;8.77;5.80;;;;;;;15.30;100.00;96300.25;5051785;28;20420;-74
2021/08/12 02:20:11;;;;;;;9.90;5.97;;;;;;;15.22;100.00;96304.25;5051894;28;20432;-74
2021/08/12 02:22:43;;;;;;;7.60;5.78;;;;;;;15.23;100.00;96305.06;5051301;28;20455;-74
2021/08/12 02:25:13;;;;;;;6.30;5.30;;;;;;;15.25;100.00;96300.59;5051599;28;20436;-74
2021/08/12 02:27:43;;;;;;;7.82;6.13;;;;;;;15.27;100.00;96295.25;5051923;28;20759;-74
2021/08/12 02:30:10;;;;;;;10.52;6.35;;;;;;;15.20;100.00;96300.06;5051317;28;20521;-74
2021/08/12 02:32:37;;;;;;;7.40;5.53;;;;;;;15.20;100.00;96293.09;5033818;28;20500;-74
2021/08/12 02:35:03;;;;;;;7.47;5.13;;;;;;;15.17;100.00;96289.88;5051666;28;20456;-74
2021/08/12 02:37:32;;;;;;;6.45;5.00;;;;;;;15.07;100.00;96291.47;5051820;28;20421;-75
2021/08/12 02:39:58;;;;;;;5.80;4.75;;;;;;;15.10;98.85;96289.50;5051477;28;20413;-75
2021/08/12 02:42:24;;;;;;;7.55;5.07;;;;;;;15.01;99.38;96279.69;5051272;28;20412;-75
2021/08/12 02:44:53;;;;;;;7.50;5.32;;;;;;;14.89;100.00;96283.19;5051350;28;20903;-74
2021/08/12 02:47:20;;;;;;;7.28;5.80;;;;;;;14.83;100.00;96288.84;5050991;28;20473;-74
2021/08/12 02:49:51;;;;;;;6.57;5.18;;;;;;;14.95;99.73;96288.81;5051612;28;20432;-74
2021/08/12 02:52:17;;;;;;;12.77;5.40;;;;;;;15.03;99.46;96285.66;5051342;28;20822;-74
2021/08/12 02:54:45;;;;;;;6.72;4.97;;;;;;;14.97;98.93;96278.25;5051313;28;20421;-74
2021/08/12 02:57:12;;;;;;;7.25;5.30;;;;;;;14.93;100.00;96271.59;5050715;28;20907;-76
2021/08/12 02:59:40;;;;;;;7.55;5.70;;;;;;;14.79;100.00;96277.81;5051135;28;20405;-76
2021/08/12 03:02:08;;;;;;;8.45;5.93;;;;;;;14.76;100.00;96273.66;5033346;28;20429;-76
2021/08/12 03:04:33;;;;;;;9.80;5.78;;;;;;;14.76;100.00;96276.28;5051233;28;20787;-75
2021/08/12 03:07:00;;;;;;;8.32;5.53;;;;;;;14.74;100.00;96278.13;5050720;28;20413;-75
2021/08/12 03:09:27;;;;;;;6.20;4.93;;;;;;;14.81;100.00;96275.94;5051008;28;20414;-76
2021/08/12 03:11:53;;;;;;;6.00;5.03;;;;;;;14.84;100.00;96280.09;5050842;28;20445;-75
2021/08/12 03:14:19;;;;;;;6.22;5.22;;;;;;;14.75;100.00;96271.16;5050963;28;20425;-76
2021/08/12 03:16:45;;;;;;;6.57;4.82;;;;;;;14.84;100.00;96269.66;5032889;28;20425;-75
2021/08/12 03:19:14;;;;;;;6.03;4.80;;;;;;;14.91;100.00;96263.06;5033213;28;20420;-75
2021/08/12 03:21:58;;;;;;;6.53;4.85;;;;;;;14.94;100.00;96265.44;5033209;28;20417;-75
2021/08/12 03:24:24;;;;;;;4.80;4.20;;;;;;;14.95;100.00;96267.13;5050881;28;20451;-75
2021/08/12 03:26:51;;;;;;;10.55;5.32;;;;;;;14.92;100.00;96275.16;5050485;28;20433;-75
2021/08/12 03:29:17;;;;;;;5.70;5.00;;;;;;;14.94;100.00;96268.91;5050788;28;20787;-75
2021/08/12 03:31:42;;;;;;;9.60;5.22;;;;;;;14.98;100.00;96267.75;5050632;28;20425;-75
2021/08/12 03:34:08;;;;;;;7.37;4.60;;;;;;;14.93;100.00;96275.03;5050721;28;20409;-75
2021/08/12 03:36:34;;;;;;;4.53;3.93;;;;;;;14.89;98.62;96276.22;5050229;28;20760;-75
2021/08/12 03:39:00;;;;;;;6.70;4.22;;;;;;;14.90;96.63;96271.81;5050476;28;20428;-76
2021/08/12 03:41:25;;;;;;;5.75;4.25;;;;;;;14.70;98.76;96275.88;5050527;28;20410;-75
2021/08/12 03:43:50;;;;;;;4.97;4.47;;;;;;;14.62;100.00;96281.63;5050488;28;20998;-75
2021/08/12 03:46:16;;;;;;;5.43;4.60;;;;;;;14.70;100.00;96273.25;5050169;28;20413;-75
2021/08/12 03:48:41;;;;;;;6.43;4.67;;;;;;;14.80;98.67;96287.31;5050771;28;20639;-75
2021/08/12 03:51:07;;;;;;;6.97;5.00;;;;;;;14.68;99.74;96286.41;5032524;28;20425;-75
2021/08/12 03:53:33;;;;;;;6.97;4.70;;;;;;;14.56;100.00;96281.22;5050445;28;20423;-75
2021/08/12 03:56:00;;;;;;;8.30;4.97;;;;;;;14.53;100.00;96287.47;5032180;28;20778;-76
2021/08/12 03:58:25;;;;;;;6.13;5.22;;;;;;;14.36;100.00;96282.59;5050637;28;20800;-76
2021/08/12 04:00:51;;;;;;;6.07;4.97;;;;;;;14.49;100.00;96284.25;5050453;28;20448;-75
2021/08/12 04:03:16;;;;;;;5.50;4.90;;;;;;;14.51;100.00;96290.19;5050414;28;20417;-75
2021/08/12 04:05:42;;;;;;;5.10;4.57;;;;;;;14.51;100.00;96290.19;5032190;28;20674;-75
2021/08/12 04:08:07;;;;;;;5.37;4.23;;;;;;;14.62;100.00;96291.22;5032356;28;20899;-75
2021/08/12 04:10:34;;;;;;;5.33;4.83;;;;;;;14.70;99.39;96283.69;5050127;28;20417;-75
2021/08/12 04:12:59;;;;;;;5.15;4.53;;;;;;;14.67;98.42;96295.16;5032542;28;20427;-76
2021/08/12 04:15:24;;;;;;;7.32;4.25;;;;;;;14.57;99.96;96288.91;5032059;28;20418;-75
2021/08/12 04:17:50;;;;;;;8.33;4.93;;;;;;;14.50;100.00;96291.16;5050205;28;20421;-75
2021/08/12 04:20:15;;;;;;;5.07;4.40;;;;;;;14.36;100.00;96287.81;5050227;28;20409;-76
2021/08/12 04:22:41;;;;;;;9.60;4.77;;;;;;;14.24;100.00;96289.50;5032231;28;20429;-75
2021/08/12 04:25:07;;;;;;;6.27;4.10;;;;;;;14.34;100.00;96281.84;5049990;28;20409;-76
2021/08/12 04:27:36;;;;;;;6.82;3.83;;;;;;;14.43;99.18;96278.63;5049860;28;20421;-76
2021/08/12 04:30:01;;;;;;;3.85;3.15;;;;;;;14.38;100.00;96275.50;5049994;28;20440;-76
2021/08/12 04:32:27;;;;;;;9.87;3.50;;;;;;;14.32;100.00;96273.31;5050063;28;20922;-76
2021/08/12 04:34:52;;;;;;;4.60;3.60;;;;;;;14.20;100.00;96262.81;5049942;28;20848;-76
2021/08/12 04:37:18;;;;;;;3.53;3.22;;;;;;;14.13;100.00;96264.19;5004033;28;20511;-75
2021/08/12 04:39:43;;;;;;;5.67;4.17;;;;;;;14.27;100.00;96265.81;5011398;28;20422;-76
2021/08/12 04:42:08;;;;;;;8.40;4.73;;;;;;;14.26;100.00;96279.78;5030039;28;20411;-76
2021/08/12 04:44:35;;;;;;;5.47;4.93;;;;;;;14.36;100.00;96272.16;5029989;28;20407;-76
2021/08/12 04:47:00;;;;;;;5.85;4.60;;;;;;;14.52;100.00;96272.78;5036666;28;20500;-76
2021/08/12 04:49:26;;;;;;;6.05;4.43;;;;;;;14.66;100.00;96277.84;5045300;28;20516;-76
2021/08/12 04:51:51;;;;;;;5.47;4.45;;;;;;;14.82;100.00;96281.97;5053278;28;20425;-76
2021/08/12 04:54:17;;;;;;;5.07;4.20;;;;;;;14.91;100.00;96271.72;5035560;28;20417;-76
2021/08/12 04:56:42;;;;;;;5.43;4.93;;;;;;;15.01;100.00;96271.88;5033715;28;20912;-76
2021/08/12 04:59:08;;;;;;;5.07;4.38;;;;;;;15.13;100.00;96280.59;5023826;28;20419;-76
2021/08/12 05:01:35;;;;;;;6.07;4.70;;;;;;;15.14;100.00;96275.28;5053266;28;20492;-76
2021/08/12 05:04:00;;;;;;;6.20;5.00;;;;;;;15.22;100.00;96282.53;5035380;28;20413;-76
2021/08/12 05:06:25;;;;;;;7.60;4.60;;;;;;;15.27;100.00;96284.81;5043731;28;20492;-76
2021/08/12 05:08:51;;;;;;;4.83;4.33;;;;;;;15.24;100.00;96278.88;5033285;28;20835;-76
2021/08/12 05:11:16;;;;;;;5.65;4.40;;;;;;;15.21;100.00;96286.09;5033101;28;20422;-76
2021/08/12 05:13:42;;;;;;;7.23;5.20;;;;;;;15.23;100.00;96287.63;5015577;28;20970;-76
2021/08/12 05:16:07;;;;;;;5.17;4.67;;;;;;;15.30;100.00;96290.63;5032863;28;20414;-76
2021/08/12 05:18:35;;;;;;;5.47;4.40;;;;;;;15.44;100.00;96289.63;5033151;28;20466;-76
2021/08/12 05:21:00;;;;;;;5.32;4.60;;;;;;;15.51;100.00;96285.63;5032864;28;20472;-76
2021/08/12 05:23:26;;;;;;;6.07;4.72;;;;;;;15.62;100.00;96288.25;5032997;28;20816;-76
2021/08/12 05:25:51;;;;;;;13.07;5.35;;;;;;;15.70;100.00;96285.09;5014805;28;20766;-76
2021/08/12 05:28:17;;;;;;;8.10;5.43;;;;;;;15.59;100.00;96293.72;5015387;28;20936;-76
2021/08/12 05:30:42;;;;;;;8.07;4.80;;;;;;;15.51;100.00;96296.06;5032825;28;20419;-76
2021/08/12 05:33:08;;;;;;;5.43;4.87;;;;;;;15.58;100.00;96292.06;5032753;28;20407;-77
2021/08/12 05:35:34;;;;;;;5.35;4.63;;;;;;;15.61;100.00;96304.88;5031837;28;20453;-76
2021/08/12 05:38:00;;;;;;;5.60;5.00;;;;;;;15.63;100.00;96305.59;5015368;28;20419;-76
2021/08/12 05:40:25;;;;;;;5.80;5.28;;;;;;;15.76;100.00;96302.94;5032683;28;20742;-76
2021/08/12 05:42:51;;;;;;;8.40;4.60;;;;;;;15.70;100.00;96309.44;5032549;28;20411;-75
2021/08/12 05:45:16;;;;;;;6.07;5.10;;;;;;;15.72;100.00;96315.38;5032444;28;20503;-76
2021/08/12 05:47:41;;;;;;;5.93;4.82;;;;;;;15.79;100.00;96315.75;5032499;28;20411;-76
2021/08/12 05:50:08;;;;;;;6.37;5.20;;;;;;;15.84;100.00;96312.81;5032415;28;20423;-75
2021/08/12 05:52:37;;;;;;;7.50;5.22;;;;;;;15.87;100.00;96309.94;5032760;28;20418;-76
2021/08/12 05:55:03;;;;;;;6.50;5.07;;;;;;;15.95;100.00;96305.81;5014927;28;20788;-75
2021/08/12 05:57:28;;;;;;;6.20;4.68;;;;;;;16.12;100.00;96301.91;5031074;28;20411;-76
2021/08/12 05:59:53;;;;;;;10.97;5.40;;;;;;;16.24;100.00;96296.69;5032314;28;20943;-75
2021/08/12 06:02:19;;;;;;;7.77;5.30;;;;;;;16.55;100.00;96292.53;5032422;28;20506;-76
2021/08/12 06:04:44;;;;;;;10.48;5.57;;;;;;;16.83;100.00;96304.28;5032214;28;20913;-76
2021/08/12 06:07:10;;;;;;;7.50;5.77;;;;;;;16.94;100.00;96296.41;5013782;28;20937;-76
2021/08/12 06:09:37;;;;;;;10.13;5.77;;;;;;;16.81;100.00;96293.97;5032225;28;20519;-76
2021/08/12 06:12:03;;;;;;;8.03;5.93;;;;;;;16.81;100.00;96291.34;5032023;28;20461;-75
2021/08/12 06:14:29;;;;;;;7.80;5.85;;;;;;;16.82;100.00;96286.94;5031950;28;20407;-75
2021/08/12 06:16:54;;;;;;;9.93;5.57;;;;;;;16.82;100.00;96285.16;5014131;28;20453;-76
2021/08/12 06:19:19;;;;;;;8.00;5.83;;;;;;;16.88;100.00;96283.84;5030544;28;20437;-75
2021/08/12 06:21:45;;;;;;;17.17;5.20;;;;;;;17.06;100.00;96292.84;5043391;28;20408;-76
2021/08/12 06:24:14;;;;;;;9.25;5.57;;;;;;;17.07;99.79;96281.41;5038145;28;20497;-77
2021/08/12 06:26:44;;;;;;;9.75;5.82;;;;;;;17.05;97.35;96285.09;5051196;28;21278;-77
2021/08/12 06:29:10;;;;;;;19.02;6.07;;;;;;;17.09;97.13;96286.50;5051853;28;20492;-77
2021/08/12 06:31:36;;;;;;;9.90;5.68;;;;;;;17.00;97.05;96279.41;5051506;28;20421;-77
2021/08/12 06:34:01;;;;;;;5.88;5.28;;;;;;;17.07;97.40;96289.25;5051355;28;20413;-77
2021/08/12 06:36:27;;;;;;;6.50;5.37;;;;;;;17.06;98.45;96292.84;5041948;28;20411;-78
2021/08/12 06:38:53;;;;;;;8.67;5.70;;;;;;;17.13;98.20;96299.25;5031688;28;20897;-77
2021/08/12 06:41:19;;;;;;;9.60;5.97;;;;;;;17.31;97.77;96301.31;5031745;28;20407;-76
2021/08/12 06:43:46;;;;;;;6.53;5.10;;;;;;;17.56;97.54;96294.91;5007486;28;20991;-75
2021/08/12 06:46:11;;;;;;;8.05;5.30;;;;;;;17.78;93.91;96307.91;5030781;28;20418;-75
2021/08/12 06:48:36;;;;;;;12.02;5.80;;;;;;;17.66;94.25;96301.88;5031443;28;20820;-75
2021/08/12 06:51:02;;;;;;;9.80;5.63;;;;;;;17.73;94.09;96302.22;5031504;28;20777;-75
2021/08/12 06:53:27;;;;;;;9.23;5.82;;;;;;;17.76;93.42;96306.38;5031230;28;20418;-74
2021/08/12 06:55:53;;;;;;;8.67;5.77;;;;;;;17.93;92.63;96302.34;5031123;28;20415;-74
2021/08/12 06:58:18;;;;;;;6.33;5.40;;;;;;;18.29;91.99;96301.88;5031628;28;20413;-75
2021/08/12 07:00:45;;;;;;;7.10;5.60;;;;;;;18.62;90.92;96300.78;5031445;28;20457;-72
2021/08/12 07:03:10;;;;;;;8.75;5.35;;;;;;;18.83;90.27;96295.47;5031663;28;20920;-75
2021/08/12 07:05:36;;;;;;;6.77;5.20;;;;;;;19.12;89.11;96305.19;5029123;28;20426;-75
2021/08/12 07:08:02;;;;;;;9.20;5.40;;;;;;;19.34;88.94;96298.88;5011520;28;20471;-74
2021/08/12 07:10:28;;;;;;;6.97;5.65;;;;;;;19.50;86.06;96301.75;5010363;28;20428;-75
2021/08/12 07:12:53;;;;;;;6.63;5.10;;;;;;;19.57;84.50;96302.03;5011806;28;20941;-76
2021/08/12 07:15:18;;;;;;;7.40;4.80;;;;;;;19.65;84.49;96304.81;5011887;28;20841;-76
2021/08/12 07:17:45;;;;;;;7.05;5.68;;;;;;;19.44;84.39;96306.75;5011344;28;20939;-76
2021/08/12 07:20:11;;;;;;;9.98;5.28;;;;;;;19.49;84.45;96305.38;5010652;28;20424;-75
2021/08/12 07:22:37;;;;;;;10.02;5.40;;;;;;;20.03;85.48;96306.59;5011636;28;20507;-76
2021/08/12 07:25:03;;;;;;;6.63;5.30;;;;;;;20.46;80.73;96299.94;5011448;28;20877;-75
2021/08/12 07:27:28;;;;;;;11.13;6.05;;;;;;;20.59;80.10;96296.22;5011312;28;20980;-75
2021/08/12 07:29:54;;;;;;;5.78;5.18;;;;;;;20.91;80.64;96290.50;5011249;28;20499;-75
2021/08/12 07:32:19;;;;;;;7.87;5.30;;;;;;;20.95;79.36;96305.88;5011169;28;20420;-76
2021/08/12 07:34:46;;;;;;;7.53;4.93;;;;;;;21.20;77.08;96288.50;5011351;28;20496;-75
2021/08/12 07:37:12;;;;;;;8.57;5.15;;;;;;;21.54;78.50;96294.94;5020979;28;20500;-76
2021/08/12 07:39:37;;;;;;;6.97;4.83;;;;;;;21.95;76.03;96281.13;5011385;28;20429;-75
2021/08/12 07:42:03;;;;;;;7.00;5.03;;;;;;;22.41;74.06;96289.66;4993711;28;20459;-75
2021/08/12 07:44:28;;;;;;;8.43;5.00;;;;;;;22.76;72.02;96287.00;4993657;28;20475;-76
2021/08/12 07:46:54;;;;;;;5.82;4.63;;;;;;;23.08;71.21;96294.25;5010998;28;20425;-76
2021/08/12 07:49:19;;;;;;;9.27;4.77;;;;;;;23.35;71.70;96296.63;5011485;28;20479;-76
2021/08/12 07:51:47;;;;;;;6.18;4.65;;;;;;;23.48;69.46;96292.69;5011294;28;20930;-75
2021/08/12 07:54:13;;;;;;;5.88;4.70;;;;;;;22.91;67.48;96295.97;5026360;28;20421;-75
2021/08/12 07:56:38;;;;;;;5.63;4.70;;;;;;;23.04;68.21;96291.13;5010722;28;20416;-76
2021/08/12 07:59:04;;;;;;;6.83;4.77;;;;;;;22.51;70.13;96294.00;5010731;28;20412;-76
2021/08/12 08:01:29;;;;;;;8.82;4.68;;;;;;;22.29;69.97;96296.22;5011081;28;20822;-76
2021/08/12 08:03:56;;;;;;;7.77;5.33;;;;;;;22.53;70.30;96289.41;5011246;28;20458;-76
2021/08/12 08:06:21;;;;;;;5.38;4.70;;;;;;;22.52;70.04;96287.75;5018450;28;20469;-76
2021/08/12 08:08:48;;;;;;;10.70;4.90;;;;;;;22.57;70.67;96293.38;5013075;28;20423;-76
2021/08/12 08:11:15;;;;;;;7.83;4.70;;;;;;;22.58;70.55;96289.75;5031013;28;20458;-75
2021/08/12 08:13:41;;;;;;;7.97;5.50;;;;;;;22.67;70.09;96292.25;5030659;28;20469;-75
2021/08/12 08:16:06;;;;;;;7.70;5.15;;;;;;;22.65;71.26;96282.84;5030173;28;20418;-76
2021/08/12 08:18:32;;;;;;;6.00;5.10;;;;;;;22.90;71.20;96279.31;5030608;28;20426;-75
2021/08/12 08:20:58;;;;;;;6.07;4.80;;;;;;;23.02;70.34;96284.31;5032238;28;20406;-77
2021/08/12 08:23:24;;;;;;;6.32;5.00;;;;;;;23.11;69.52;96280.72;5034335;28;20911;-76
2021/08/12 08:25:51;;;;;;;8.38;5.60;;;;;;;23.10;69.26;96284.34;5034083;28;20430;-74
2021/08/12 08:28:16;;;;;;;6.95;4.90;;;;;;;23.26;69.46;96287.03;5016389;28;20422;-76
2021/08/12 08:30:41;;;;;;;5.50;4.70;;;;;;;23.41;68.37;96289.88;5016572;28;20510;-76
2021/08/12 08:33:08;;;;;;;11.80;5.43;;;;;;;23.49;67.91;96289.06;5034452;28;20406;-75
2021/08/12 08:35:34;;;;;;;7.68;5.10;;;;;;;23.57;68.11;96289.88;5033652;28;20881;-76
2021/08/12 08:38:00;;;;;;;7.88;5.10;;;;;;;23.14;69.27;96290.97;5034930;28;20841;-76
2021/08/12 08:40:26;;;;;;;8.32;5.03;;;;;;;23.29;68.18;96288.53;5034166;28;20411;-76
2021/08/12 08:42:54;;;;;;;8.93;4.50;;;;;;;23.52;68.27;96289.56;5034187;28;20443;-76
2021/08/12 08:45:21;;;;;;;7.82;5.47;;;;;;;23.35;68.17;96293.97;5033910;28;20438;-76
2021/08/12 08:47:49;;;;;;;6.30;4.60;;;;;;;23.87;67.52;96285.78;5016359;28;20921;-76
2021/08/12 08:50:17;;;;;;;9.85;4.75;;;;;;;24.12;65.98;96281.28;5014171;28;20426;-76
2021/08/12 08:52:42;;;;;;;7.32;4.80;;;;;;;24.09;66.47;96283.44;5034122;28;20486;-76
2021/08/12 08:55:08;;;;;;;9.13;4.75;;;;;;;24.33;65.75;96278.13;5033847;28;20418;-73
2021/08/12 08:57:36;;;;;;;7.53;4.75;;;;;;;24.65;65.96;96273.72;5033254;28;20454;-73
2021/08/12 09:00:03;;;;;;;6.43;4.27;;;;;;;25.16;63.67;96278.66;5033559;28;20415;-73
2021/08/12 09:02:29;;;;;;;9.65;5.45;;;;;;;24.62;65.00;96269.63;5032735;28;20458;-73
2021/08/12 09:04:54;;;;;;;7.23;4.53;;;;;;;24.72;64.29;96276.53;5033364;28;20449;-73
2021/08/12 09:07:20;;;;;;;6.80;4.50;;;;;;;24.96;62.83;96275.59;5032763;28;20422;-73
2021/08/12 09:09:46;;;;;;;9.18;4.80;;;;;;;25.12;63.18;96266.75;5033826;28;20454;-73
2021/08/12 09:12:11;;;;;;;11.50;5.05;;;;;;;25.27;62.12;96278.25;5032958;28;20899;-73
2021/08/12 09:14:38;;;;;;;6.20;4.43;;;;;;;25.62;66.15;96273.38;5015448;28;20513;-72
2021/08/12 09:17:26;;;;;;;7.30;4.90;;;;;;;26.16;64.76;96268.78;5015122;28;20423;-74
2021/08/12 09:20:05;;;;;;;6.72;4.85;;;;;;;26.12;58.74;96274.63;5030207;28;20444;-74
2021/08/12 09:22:46;;;;;;;7.03;4.88;;;;;;;26.20;59.19;96266.59;5036097;28;20417;-74
2021/08/12 09:25:12;;;;;;;7.55;4.88;;;;;;;25.82;58.32;96269.25;5042858;28;20500;-74
2021/08/12 09:27:37;;;;;;;5.38;4.43;;;;;;;26.38;64.29;96269.72;5040237;28;20498;-74
2021/08/12 09:30:11;;;;;;;11.83;4.80;;;;;;;26.76;57.79;96264.31;5033028;28;20512;-74
2021/08/12 09:32:46;;;;;;;5.68;4.70;;;;;;;27.11;57.38;96264.53;5032959;28;20495;-74
2021/08/12 09:35:11;;;;;;;8.52;4.90;;;;;;;26.92;57.01;96268.59;5031168;28;20983;-74
2021/08/12 09:37:37;;;;;;;8.07;4.97;;;;;;;25.96;58.22;96271.13;5042057;28;20505;-73
2021/08/12 09:40:03;;;;;;;10.57;4.90;;;;;;;26.59;59.96;96271.69;5041287;28;20411;-75
2021/08/12 09:42:29;;;;;;;6.43;4.43;;;;;;;26.74;56.88;96275.16;5033003;28;20422;-74
2021/08/12 09:44:54;;;;;;;5.90;4.80;;;;;;;26.47;58.42;96267.81;5015388;28;20423;-75
2021/08/12 09:47:28;;;;;;;7.00;4.47;;;;;;;26.61;58.79;96277.63;5032728;28;20415;-75
2021/08/12 09:49:56;;;;;;;7.10;4.40;;;;;;;26.79;56.15;96270.09;5032998;28;21217;-75
2021/08/12 09:52:28;;;;;;;8.18;4.60;;;;;;;27.25;57.46;96277.84;5015155;28;20423;-75
2021/08/12 09:55:02;;;;;;;9.10;4.90;;;;;;;27.56;54.94;96274.03;5039074;28;20421;-74
2021/08/12 09:57:42;;;;;;;9.48;4.90;;;;;;;27.66;53.60;96277.22;5043921;28;20802;-76
2021/08/12 10:00:11;;;;;;;7.15;4.72;;;;;;;27.60;53.41;96275.31;5042016;28;20419;-76
2021/08/12 10:02:37;;;;;;;9.35;5.13;;;;;;;27.08;53.71;96276.38;5012860;28;20421;-76
2021/08/12 10:05:06;;;;;;;9.13;5.73;;;;;;;26.68;54.33;96265.25;4995288;28;20475;-76
2021/08/12 10:07:37;;;;;;;7.63;4.88;;;;;;;27.12;54.27;96271.53;5012432;28;20498;-76
2021/08/12 10:10:12;;;;;;;7.43;4.80;;;;;;;27.38;52.23;96271.00;5032709;28;20458;-76
2021/08/12 10:12:47;;;;;;;6.97;4.95;;;;;;;27.88;52.83;96270.03;5014687;28;20426;-77
2021/08/12 10:15:17;;;;;;;6.07;4.68;;;;;;;28.18;48.63;96267.19;5032131;28;20422;-77
2021/08/12 10:17:42;;;;;;;6.82;5.05;;;;;;;28.05;48.44;96273.25;5014549;28;20435;-77
2021/08/12 10:20:13;;;;;;;8.00;5.17;;;;;;;28.51;52.06;96262.09;5032663;28;20493;-76
2021/08/12 10:22:39;;;;;;;10.07;5.10;;;;;;;28.49;52.13;96250.84;5032388;28;20419;-77
2021/08/12 10:25:06;;;;;;;7.55;5.07;;;;;;;28.15;52.78;96263.09;5031905;28;20423;-77
2021/08/12 10:27:33;;;;;;;8.20;5.60;;;;;;;28.13;54.86;96261.63;5031874;28;20473;-77
2021/08/12 10:30:01;;;;;;;6.20;4.80;;;;;;;28.18;51.05;96267.19;5033026;28;20415;-79
2021/08/12 10:32:27;;;;;;;6.60;4.75;;;;;;;28.41;51.47;96261.66;5032884;28;20466;-80
2021/08/12 10:34:53;;;;;;;8.82;5.13;;;;;;;28.41;54.81;96256.34;5032229;28;20447;-80
2021/08/12 10:37:19;;;;;;;6.70;5.20;;;;;;;28.23;49.29;96264.78;4998389;28;20452;-79
2021/08/12 10:39:45;;;;;;;8.13;5.17;;;;;;;28.44;52.89;96256.78;5012974;28;20444;-80
2021/08/12 10:42:12;;;;;;;7.93;5.70;;;;;;;27.97;49.25;96252.94;5012824;28;20439;-80
2021/08/12 10:44:37;;;;;;;11.30;5.30;;;;;;;27.95;47.36;96254.13;5011103;28;20975;-80
2021/08/12 10:47:03;;;;;;;8.93;5.37;;;;;;;27.66;49.17;96245.28;5011963;28;20744;-77
2021/08/12 10:49:30;;;;;;;9.98;5.40;;;;;;;28.03;52.64;96248.66;5011668;28;20428;-77
2021/08/12 10:52:04;;;;;;;6.50;5.07;;;;;;;28.04;50.74;96244.19;5011737;28;20471;-77
2021/08/12 10:54:32;;;;;;;9.70;5.20;;;;;;;27.79;49.27;96246.44;5011690;28;20427;-77
2021/08/12 10:57:14;;;;;;;7.82;5.47;;;;;;;27.70;46.08;96248.34;5011610;28;20451;-76
2021/08/12 10:59:41;;;;;;;8.93;4.77;;;;;;;27.81;46.07;96241.72;5012179;28;20435;-77
2021/08/12 11:02:39;;;;;;;9.90;5.43;;;;;;;27.83;47.42;96240.53;5010674;28;20511;-77
2021/08/12 11:05:05;;;;;;;11.23;5.70;;;;;;;27.73;44.52;96240.00;4994693;28;20559;-77
2021/08/12 11:07:46;;;;;;;7.63;5.40;;;;;;;27.34;45.05;96237.81;5029242;28;20980;-77
2021/08/12 11:10:14;;;;;;;7.65;5.32;;;;;;;27.22;44.32;96240.97;5028255;28;20453;-77
2021/08/12 11:13:02;;;;;;;7.30;5.70;;;;;;;27.42;45.58;96241.16;5013919;28;20474;-77
2021/08/12 11:15:59;;;;;;;11.60;5.85;;;;;;;27.36;43.36;96247.22;5030711;28;20509;-77
2021/08/12 11:18:46;;;;;;;7.25;5.95;;;;;;;27.42;43.81;96243.81;5013839;28;20767;-77
2021/08/12 11:21:37;;;;;;;7.07;6.15;;;;;;;27.16;42.94;96239.06;5013565;28;20473;-76
2021/08/12 11:24:04;;;;;;;7.00;5.43;;;;;;;26.85;42.81;96244.63;5013487;28;20776;-76
2021/08/12 11:27:06;;;;;;;9.57;6.03;;;;;;;27.02;43.31;96239.88;5031044;28;20442;-76
2021/08/12 11:29:34;;;;;;;7.05;5.78;;;;;;;26.89;43.76;96237.91;5031344;28;20535;-76
2021/08/12 11:32:03;;;;;;;13.25;5.82;;;;;;;26.88;45.26;96233.59;5013224;28;20454;-76